Time;durP1;ratioP1;P1;durP2;ratioP2;P2;SDS_P1;SDS_P2;PMS_P1;PMS_P2;Temp;Humidity;BMP_temperature;BMP_pressure;BME280_temperature;BME280_humidity;BME280_pressure;Samples;Min_cycle;Max_cycle;Signal;HPM_P1;HPM_P2
2020/12/07 00:03:16;;;;;;;12.20;5.57;;;;;;;;;;10551843;28;20199;-75
2020/12/07 00:08:17;;;;;;;11.77;6.07;;;;;;;;;;10559884;28;20218;-74
2020/12/07 00:13:19;;;;;;;11.43;5.53;;;;;;;;;;10560370;28;20201;-72
2020/12/07 00:18:21;;;;;;;13.00;6.70;;;;;;;;;;10551753;28;20606;-74
2020/12/07 00:23:23;;;;;;;13.77;6.93;;;;;;;;;;10548968;28;20260;-74
2020/12/07 00:28:24;;;;;;;11.90;6.40;;;;;;;;;;10550413;28;20235;-74
2020/12/07 00:33:26;;;;;;;11.87;7.10;;;;;;;;;;10557387;28;20203;-74
2020/12/07 00:38:28;;;;;;;12.23;6.60;;;;;;;;;;10557823;28;20219;-74
2020/12/07 00:43:29;;;;;;;10.77;6.43;;;;;;;;;;10550091;28;20210;-75
2020/12/07 00:48:32;;;;;;;10.67;6.20;;;;;;;;;;10544523;28;20226;-75
2020/12/07 00:53:34;;;;;;;12.37;6.40;;;;;;;;;;10553782;28;20211;-75
2020/12/07 00:58:35;;;;;;;10.37;5.20;;;;;;;;;;10541779;28;20242;-74
2020/12/07 01:03:38;;;;;;;10.90;6.40;;;;;;;;;;10543682;28;20531;-76
2020/12/07 01:08:39;;;;;;;11.40;6.13;;;;;;;;;;10547719;28;20282;-75
2020/12/07 01:13:41;;;;;;;12.53;6.77;;;;;;;;;;10549004;28;20237;-75
2020/12/07 01:18:43;;;;;;;10.23;5.50;;;;;;;;;;10547878;28;20243;-73
2020/12/07 01:23:45;;;;;;;10.03;5.47;;;;;;;;;;10548118;28;20346;-74
2020/12/07 01:28:47;;;;;;;9.13;4.60;;;;;;;;;;10547456;28;20681;-74
2020/12/07 01:33:50;;;;;;;10.03;5.63;;;;;;;;;;10549577;28;20200;-74
2020/12/07 01:38:51;;;;;;;10.53;5.20;;;;;;;;;;10546230;28;20250;-73
2020/12/07 01:43:53;;;;;;;6.93;3.23;;;;;;;;;;10539368;28;20214;-74
2020/12/07 01:48:56;;;;;;;10.17;5.40;;;;;;;;;;10545144;28;20571;-74
2020/12/07 01:53:57;;;;;;;9.40;5.37;;;;;;;;;;10543088;28;20214;-74
2020/12/07 01:58:59;;;;;;;8.50;4.23;;;;;;;;;;10541961;28;20257;-74
2020/12/07 02:04:01;;;;;;;10.20;5.63;;;;;;;;;;10547496;28;20684;-76
2020/12/07 02:09:03;;;;;;;10.03;5.60;;;;;;;;;;10555989;28;20555;-74
2020/12/07 02:14:04;;;;;;;9.00;4.60;;;;;;;;;;10554917;28;20239;-73
2020/12/07 02:19:06;;;;;;;8.63;5.07;;;;;;;;;;10555259;28;20706;-74
2020/12/07 02:24:09;;;;;;;6.63;3.60;;;;;;;;;;10553112;28;20339;-75
2020/12/07 02:29:11;;;;;;;8.67;4.60;;;;;;;;;;10546170;28;20222;-75
2020/12/07 02:34:12;;;;;;;8.27;4.27;;;;;;;;;;10547104;28;20655;-74
2020/12/07 02:39:14;;;;;;;7.23;3.53;;;;;;;;;;10552714;28;20231;-75
2020/12/07 02:44:16;;;;;;;8.27;4.47;;;;;;;;;;10556164;28;20210;-74
2020/12/07 02:49:17;;;;;;;9.30;4.80;;;;;;;;;;10545380;28;20219;-74
2020/12/07 02:54:20;;;;;;;8.50;4.50;;;;;;;;;;10545622;28;20620;-75
2020/12/07 02:59:21;;;;;;;8.23;4.13;;;;;;;;;;10550015;28;20240;-75
2020/12/07 03:04:22;;;;;;;8.27;4.47;;;;;;;;;;10554337;28;20791;-75
2020/12/07 03:09:25;;;;;;;2.97;1.53;;;;;;;;;;10548205;28;20809;-75
2020/12/07 03:14:27;;;;;;;9.17;4.20;;;;;;;;;;10544854;28;20198;-73
2020/12/07 03:19:29;;;;;;;7.40;4.13;;;;;;;;;;10556719;28;20246;-74
2020/12/07 03:24:32;;;;;;;7.97;4.20;;;;;;;;;;10549647;28;20639;-74
2020/12/07 03:29:34;;;;;;;8.87;5.10;;;;;;;;;;10547953;28;20318;-75
2020/12/07 03:34:36;;;;;;;9.10;4.93;;;;;;;;;;10539150;28;20616;-73
2020/12/07 03:39:38;;;;;;;9.40;4.73;;;;;;;;;;10544502;28;20299;-75
2020/12/07 03:44:40;;;;;;;8.30;4.27;;;;;;;;;;10550282;28;20195;-75
2020/12/07 03:49:41;;;;;;;9.00;5.03;;;;;;;;;;10557970;28;20521;-75
2020/12/07 03:54:44;;;;;;;9.77;5.10;;;;;;;;;;10563447;28;20618;-75
2020/12/07 03:59:45;;;;;;;9.13;4.43;;;;;;;;;;10544045;28;20246;-75
2020/12/07 04:04:50;;;;;;;6.50;3.07;;;;;;;;;;10559993;28;20199;-75
2020/12/07 04:09:53;;;;;;;9.37;4.87;;;;;;;;;;10554970;28;20207;-74
2020/12/07 04:14:54;;;;;;;9.33;4.63;;;;;;;;;;10555523;28;20520;-74
2020/12/07 04:19:55;;;;;;;8.87;4.97;;;;;;;;;;10545417;28;20234;-73
2020/12/07 04:24:58;;;;;;;9.87;5.23;;;;;;;;;;10565168;28;20203;-74
2020/12/07 04:29:59;;;;;;;7.07;3.23;;;;;;;;;;10539830;28;20208;-74
2020/12/07 04:35:01;;;;;;;9.00;4.07;;;;;;;;;;10543429;28;20221;-74
2020/12/07 04:40:03;;;;;;;10.57;5.03;;;;;;;;;;10545335;28;20225;-72
2020/12/07 04:45:05;;;;;;;11.93;6.13;;;;;;;;;;10541831;28;20205;-73
2020/12/07 04:50:07;;;;;;;9.43;4.60;;;;;;;;;;10556819;28;20218;-74
2020/12/07 04:55:09;;;;;;;8.03;4.03;;;;;;;;;;10546355;28;20214;-73
2020/12/07 05:00:12;;;;;;;6.90;3.27;;;;;;;;;;10554198;28;20255;-73
2020/12/07 05:05:13;;;;;;;7.07;3.50;;;;;;;;;;10552264;28;20607;-74
2020/12/07 05:10:19;;;;;;;6.17;3.10;;;;;;;;;;10553728;28;20210;-74
2020/12/07 05:15:22;;;;;;;5.83;3.07;;;;;;;;;;10554269;28;20215;-74
2020/12/07 05:20:24;;;;;;;6.60;3.07;;;;;;;;;;10544301;28;20675;-74
2020/12/07 05:25:26;;;;;;;7.47;3.60;;;;;;;;;;10538739;28;20241;-74
2020/12/07 05:30:32;;;;;;;7.73;3.50;;;;;;;;;;10551660;28;20270;-74
2020/12/07 05:35:39;;;;;;;7.93;3.80;;;;;;;;;;10549691;28;20227;-73
2020/12/07 05:40:41;;;;;;;6.93;3.40;;;;;;;;;;10549338;28;20594;-72
2020/12/07 05:45:43;;;;;;;7.43;3.47;;;;;;;;;;10552498;28;20195;-74
2020/12/07 05:50:46;;;;;;;7.53;3.57;;;;;;;;;;10556103;28;20233;-74
2020/12/07 05:55:48;;;;;;;9.10;3.87;;;;;;;;;;10546418;28;20231;-74
2020/12/07 06:00:52;;;;;;;7.93;3.83;;;;;;;;;;10546821;28;20220;-73
2020/12/07 06:05:53;;;;;;;8.03;3.83;;;;;;;;;;10551283;28;20202;-74
2020/12/07 06:10:58;;;;;;;8.30;3.60;;;;;;;;;;10552596;28;20637;-74
2020/12/07 06:16:03;;;;;;;8.50;3.43;;;;;;;;;;10548485;28;20208;-75
2020/12/07 06:21:05;;;;;;;8.43;3.60;;;;;;;;;;10548597;28;20227;-75
2020/12/07 06:26:09;;;;;;;8.00;3.80;;;;;;;;;;10540541;28;20632;-74
2020/12/07 06:31:11;;;;;;;9.47;4.20;;;;;;;;;;10543912;28;20601;-73
2020/12/07 06:36:24;;;;;;;7.53;3.33;;;;;;;;;;10546618;28;20226;-74
2020/12/07 06:41:30;;;;;;;8.30;4.03;;;;;;;;;;10553144;28;20211;-75
2020/12/07 06:46:50;;;;;;;7.13;3.30;;;;;;;;;;10552092;28;20226;-75
2020/12/07 06:51:55;;;;;;;27.57;12.90;;;;;;;;;;10569187;28;20259;-74
2020/12/07 06:57:17;;;;;;;25.10;10.67;;;;;;;;;;10560412;28;20227;-75
2020/12/07 07:02:19;;;;;;;16.93;8.77;;;;;;;;;;10559040;28;20602;-75
2020/12/07 07:07:21;;;;;;;9.27;4.10;;;;;;;;;;10559604;28;20208;-74
2020/12/07 07:12:23;;;;;;;9.37;4.30;;;;;;;;;;10552156;28;20216;-74
2020/12/07 07:17:26;;;;;;;8.73;3.30;;;;;;;;;;10558858;28;20215;-75
2020/12/07 07:22:28;;;;;;;9.03;3.87;;;;;;;;;;10546148;28;20580;-74
2020/12/07 07:32:50;;;;;;;10.00;4.40;;;;;;;;;;10562952;28;20215;-74
2020/12/07 07:37:52;;;;;;;8.73;3.40;;;;;;;;;;10556261;28;20223;-75
2020/12/07 07:42:55;;;;;;;7.83;3.20;;;;;;;;;;10553211;28;20574;-74
2020/12/07 07:48:01;;;;;;;11.43;2.37;;;;;;;;;;10559269;28;20665;-75
2020/12/07 07:53:42;;;;;;;5.60;2.10;;;;;;;;;;10560713;28;20574;-75
2020/12/07 08:15:41;;;;;;;5.03;2.37;;;;;;;;;;10552182;28;20212;-74
2020/12/07 08:20:48;;;;;;;4.57;2.00;;;;;;;;;;10556562;28;20713;-71
2020/12/07 08:25:51;;;;;;;5.93;2.30;;;;;;;;;;10548597;28;20233;-70
2020/12/07 08:31:09;;;;;;;4.93;2.17;;;;;;;;;;10547045;28;20462;-74
2020/12/07 08:36:11;;;;;;;3.63;1.93;;;;;;;;;;10554255;28;20202;-74
2020/12/07 08:41:13;;;;;;;3.67;1.50;;;;;;;;;;10548815;28;20559;-75
2020/12/07 08:46:16;;;;;;;3.77;1.70;;;;;;;;;;10552511;28;20625;-75
2020/12/07 08:51:19;;;;;;;3.30;1.70;;;;;;;;;;10545033;28;20227;-74
2020/12/07 08:56:20;;;;;;;2.97;1.40;;;;;;;;;;10558111;28;20215;-74
2020/12/07 09:01:23;;;;;;;2.97;1.60;;;;;;;;;;10551670;28;20219;-75
2020/12/07 09:06:25;;;;;;;2.70;1.50;;;;;;;;;;10542263;28;20511;-75
2020/12/07 09:11:26;;;;;;;2.57;1.53;;;;;;;;;;10552284;28;20226;-76
2020/12/07 09:16:30;;;;;;;2.85;1.70;;;;;;;;;;10541082;28;20539;-74
2020/12/07 09:21:31;;;;;;;1.88;1.50;;;;;;;;;;10552031;28;20220;-75
2020/12/07 09:26:33;;;;;;;2.60;1.48;;;;;;;;;;10552842;28;20198;-75
2020/12/07 09:31:35;;;;;;;1.60;1.50;;;;;;;;;;10551427;28;20232;-76
2020/12/07 09:36:36;;;;;;;1.25;1.20;;;;;;;;;;10557561;28;20230;-75
2020/12/07 09:41:38;;;;;;;1.55;1.45;;;;;;;;;;10544231;28;20223;-75
2020/12/07 09:46:40;;;;;;;3.17;1.90;;;;;;;;;;10560021;28;20203;-75
2020/12/07 09:51:42;;;;;;;2.28;1.70;;;;;;;;;;10551023;28;20572;-75
2020/12/07 09:56:43;;;;;;;1.17;1.08;;;;;;;;;;10542689;28;20219;-76
2020/12/07 10:01:45;;;;;;;2.60;2.13;;;;;;;;;;10547019;28;20639;-76
2020/12/07 10:06:47;;;;;;;2.10;1.50;;;;;;;;;;10555974;28;20206;-76
2020/12/07 10:11:48;;;;;;;2.13;1.53;;;;;;;;;;10548545;28;20219;-75
2020/12/07 10:16:51;;;;;;;2.00;1.30;;;;;;;;;;10547101;28;20705;-75
2020/12/07 10:21:52;;;;;;;2.30;1.40;;;;;;;;;;10558929;28;20219;-75
2020/12/07 10:26:54;;;;;;;2.40;1.40;;;;;;;;;;10550848;28;20544;-75
2020/12/07 10:31:57;;;;;;;2.83;1.50;;;;;;;;;;10560955;28;20544;-75
2020/12/07 10:36:59;;;;;;;2.47;1.53;;;;;;;;;;10558047;28;20229;-72
2020/12/07 10:42:01;;;;;;;2.10;1.30;;;;;;;;;;10549756;28;20229;-74
2020/12/07 10:47:03;;;;;;;2.70;1.30;;;;;;;;;;10557482;28;20198;-74
2020/12/07 10:52:04;;;;;;;2.67;1.47;;;;;;;;;;10562720;28;20274;-75
2020/12/07 10:57:06;;;;;;;4.33;1.70;;;;;;;;;;10557667;28;20702;-74
2020/12/07 11:02:08;;;;;;;3.43;1.43;;;;;;;;;;10564292;28;20221;-74
2020/12/07 11:07:13;;;;;;;4.13;1.70;;;;;;;;;;10555758;28;20572;-71
2020/12/07 11:12:15;;;;;;;2.60;1.67;;;;;;;;;;10553110;28;20301;-71
2020/12/07 11:17:17;;;;;;;7.97;3.80;;;;;;;;;;10558323;28;20243;-71
2020/12/07 11:22:19;;;;;;;3.10;1.63;;;;;;;;;;10564545;28;20287;-72
2020/12/07 11:27:20;;;;;;;3.60;1.63;;;;;;;;;;10550261;28;20315;-70
2020/12/07 11:32:22;;;;;;;3.40;1.63;;;;;;;;;;10567789;28;20211;-70
2020/12/07 11:37:24;;;;;;;3.67;1.67;;;;;;;;;;10552252;28;20306;-72
2020/12/07 11:42:39;;;;;;;2.27;1.50;;;;;;;;;;10552169;28;20223;-75
2020/12/07 11:47:41;;;;;;;2.23;1.30;;;;;;;;;;10553567;28;20667;-75
2020/12/07 11:52:43;;;;;;;3.80;1.53;;;;;;;;;;10553127;28;20215;-74
2020/12/07 11:57:45;;;;;;;2.60;1.70;;;;;;;;;;10562407;28;20639;-73
2020/12/07 12:02:47;;;;;;;2.87;1.57;;;;;;;;;;10554960;28;20215;-74
2020/12/07 12:07:49;;;;;;;2.37;1.40;;;;;;;;;;10564983;28;20195;-74
2020/12/07 12:12:50;;;;;;;4.27;1.80;;;;;;;;;;10559472;28;20735;-74
2020/12/07 12:17:52;;;;;;;4.53;1.90;;;;;;;;;;10561698;28;20223;-75
2020/12/07 12:22:54;;;;;;;4.50;2.00;;;;;;;;;;10544967;28;20216;-74
2020/12/07 12:27:58;;;;;;;4.20;1.83;;;;;;;;;;10558091;28;20198;-75
2020/12/07 12:33:01;;;;;;;5.00;1.90;;;;;;;;;;10552178;28;20200;-75
2020/12/07 12:38:02;;;;;;;3.10;1.70;;;;;;;;;;10553407;28;20729;-74
2020/12/07 12:43:04;;;;;;;4.77;1.90;;;;;;;;;;10547392;28;20227;-74
2020/12/07 12:48:06;;;;;;;4.23;1.73;;;;;;;;;;10564420;28;20626;-75
2020/12/07 12:53:08;;;;;;;7.77;3.80;;;;;;;;;;10559927;28;20680;-75
2020/12/07 12:58:09;;;;;;;4.07;1.90;;;;;;;;;;10556143;28;20222;-75
2020/12/07 13:03:11;;;;;;;4.90;1.80;;;;;;;;;;10556517;28;20195;-74
2020/12/07 13:08:13;;;;;;;3.23;1.40;;;;;;;;;;10552211;28;20273;-75
2020/12/07 13:13:15;;;;;;;5.30;1.83;;;;;;;;;;10556839;28;20199;-75
2020/12/07 13:18:17;;;;;;;2.57;1.50;;;;;;;;;;10545241;28;20330;-75
2020/12/07 13:23:21;;;;;;;7.47;3.33;;;;;;;;;;10542384;28;20454;-74
2020/12/07 13:28:23;;;;;;;5.33;2.23;;;;;;;;;;10539144;28;20211;-74
2020/12/07 13:33:25;;;;;;;10.87;3.73;;;;;;;;;;10552887;28;20271;-74
2020/12/07 13:38:27;;;;;;;5.57;2.30;;;;;;;;;;10553752;28;20219;-75
2020/12/07 13:43:28;;;;;;;6.13;2.00;;;;;;;;;;10560841;28;20206;-74
2020/12/07 13:48:31;;;;;;;4.50;1.60;;;;;;;;;;10556760;28;20237;-75
2020/12/07 13:53:32;;;;;;;5.77;2.30;;;;;;;;;;10558000;28;20263;-74
2020/12/07 13:58:34;;;;;;;8.07;2.20;;;;;;;;;;10542422;28;20686;-74
2020/12/07 14:03:42;;;;;;;4.97;1.90;;;;;;;;;;10547002;28;20251;-74
2020/12/07 14:08:43;;;;;;;7.47;2.50;;;;;;;;;;10547316;28;20512;-74
2020/12/07 14:13:45;;;;;;;4.93;1.80;;;;;;;;;;10546251;28;20199;-74
2020/12/07 14:18:58;;;;;;;10.80;3.60;;;;;;;;;;10539141;28;20235;-74
2020/12/07 14:24:05;;;;;;;5.47;2.33;;;;;;;;;;10552780;28;20199;-74
2020/12/07 14:29:48;;;;;;;3.43;1.80;;;;;;;;;;10552611;28;20309;-74
2020/12/07 14:40:07;;;;;;;6.60;2.40;;;;;;;;;;10552417;28;20309;-74
2020/12/07 14:45:12;;;;;;;3.73;1.80;;;;;;;;;;10540384;28;20221;-74
2020/12/07 14:50:18;;;;;;;1.83;1.00;;;;;;;;;;10546321;28;20591;-74
2020/12/07 14:55:28;;;;;;;5.67;1.50;;;;;;;;;;10551872;28;20211;-73
2020/12/07 15:05:52;;;;;;;3.80;1.20;;;;;;;;;;10557622;28;20199;-75
2020/12/07 15:11:27;;;;;;;3.37;0.97;;;;;;;;;;10558948;28;20222;-74
2020/12/07 15:16:29;;;;;;;3.53;1.00;;;;;;;;;;10563045;28;20192;-74
2020/12/07 15:21:31;;;;;;;4.17;1.20;;;;;;;;;;10555051;28;20235;-74
2020/12/07 15:26:33;;;;;;;4.77;1.30;;;;;;;;;;10557438;28;20197;-74
2020/12/07 15:31:34;;;;;;;13.23;4.90;;;;;;;;;;10566355;28;20841;-74
2020/12/07 15:36:36;;;;;;;21.53;9.17;;;;;;;;;;10554472;28;20207;-74
2020/12/07 15:41:38;;;;;;;9.27;3.50;;;;;;;;;;10555980;28;20238;-74
2020/12/07 15:46:39;;;;;;;7.00;1.50;;;;;;;;;;10545728;28;20237;-72
2020/12/07 15:51:42;;;;;;;3.03;1.33;;;;;;;;;;10545215;28;20298;-75
2020/12/07 15:56:46;;;;;;;8.13;3.23;;;;;;;;;;10545448;28;20216;-74
2020/12/07 16:01:48;;;;;;;10.47;3.40;;;;;;;;;;10545612;28;20711;-73
2020/12/07 16:06:50;;;;;;;2.83;1.40;;;;;;;;;;10566901;28;20619;-73
2020/12/07 16:11:52;;;;;;;3.43;1.50;;;;;;;;;;10552007;28;20694;-74
2020/12/07 16:16:54;;;;;;;2.10;1.33;;;;;;;;;;10563477;28;20200;-73
2020/12/07 16:21:56;;;;;;;5.73;2.10;;;;;;;;;;10541729;28;20279;-73
2020/12/07 16:26:58;;;;;;;6.43;2.13;;;;;;;;;;10550220;28;20226;-73
2020/12/07 16:32:01;;;;;;;5.83;2.53;;;;;;;;;;10558100;28;20220;-73
2020/12/07 16:37:04;;;;;;;5.50;2.53;;;;;;;;;;10557050;28;20213;-74
2020/12/07 16:42:06;;;;;;;7.87;3.53;;;;;;;;;;10543442;28;20222;-74
2020/12/07 16:47:07;;;;;;;8.73;3.50;;;;;;;;;;10573069;28;20209;-74
2020/12/07 16:52:10;;;;;;;8.70;3.83;;;;;;;;;;10560304;28;20227;-73
2020/12/07 16:57:11;;;;;;;8.07;4.30;;;;;;;;;;10554698;28;20217;-74
2020/12/07 17:02:13;;;;;;;8.07;4.63;;;;;;;;;;10553153;28;20253;-73
2020/12/07 17:07:15;;;;;;;9.10;4.60;;;;;;;;;;10564688;28;20225;-74
2020/12/07 17:12:18;;;;;;;9.17;4.73;;;;;;;;;;10557467;28;20222;-73
2020/12/07 17:17:19;;;;;;;10.67;5.50;;;;;;;;;;10561652;28;20210;-74
2020/12/07 17:22:23;;;;;;;8.87;5.03;;;;;;;;;;10551815;28;20310;-74
2020/12/07 17:27:25;;;;;;;10.17;5.10;;;;;;;;;;10539082;28;20202;-71
2020/12/07 17:32:27;;;;;;;11.40;6.27;;;;;;;;;;10553303;28;20572;-75
2020/12/07 17:37:30;;;;;;;11.93;7.70;;;;;;;;;;10548883;28;20256;-75
2020/12/07 17:42:32;;;;;;;11.27;6.40;;;;;;;;;;10543711;28;20226;-73
2020/12/07 17:47:34;;;;;;;11.17;6.03;;;;;;;;;;10557500;28;20210;-73
2020/12/07 17:52:37;;;;;;;10.60;6.17;;;;;;;;;;10556447;28;20645;-73
2020/12/07 17:57:39;;;;;;;10.00;5.77;;;;;;;;;;10543525;28;20222;-75
2020/12/07 18:02:41;;;;;;;11.27;6.40;;;;;;;;;;10552639;28;20261;-75
2020/12/07 18:07:44;;;;;;;12.17;6.20;;;;;;;;;;10559303;28;20203;-75
2020/12/07 18:12:45;;;;;;;11.27;6.70;;;;;;;;;;10560451;28;20234;-75
2020/12/07 18:17:47;;;;;;;12.70;7.27;;;;;;;;;;10547353;28;20215;-72
2020/12/07 18:22:49;;;;;;;13.43;7.60;;;;;;;;;;10545114;28;20215;-73
2020/12/07 18:27:51;;;;;;;14.43;8.37;;;;;;;;;;10556237;28;20566;-72
2020/12/07 18:32:53;;;;;;;14.00;8.30;;;;;;;;;;10554987;28;20218;-73
2020/12/07 18:37:57;;;;;;;15.03;8.80;;;;;;;;;;10553348;28;20214;-71
2020/12/07 18:42:58;;;;;;;16.23;9.00;;;;;;;;;;10564557;28;21202;-73
2020/12/07 18:48:00;;;;;;;17.60;9.37;;;;;;;;;;10555261;28;20195;-71
2020/12/07 18:53:03;;;;;;;15.23;8.73;;;;;;;;;;10562624;28;20553;-72
2020/12/07 18:58:05;;;;;;;15.73;8.97;;;;;;;;;;10559512;28;20302;-73
2020/12/07 19:03:06;;;;;;;15.70;9.77;;;;;;;;;;10560949;28;20195;-74
2020/12/07 19:08:09;;;;;;;15.23;9.10;;;;;;;;;;10563209;28;20233;-74
2020/12/07 19:13:10;;;;;;;16.87;10.47;;;;;;;;;;10564978;28;20306;-74
2020/12/07 19:18:12;;;;;;;17.83;10.33;;;;;;;;;;10547854;28;20575;-73
2020/12/07 19:23:14;;;;;;;17.83;10.87;;;;;;;;;;10559144;28;20206;-74
2020/12/07 19:28:16;;;;;;;18.70;11.23;;;;;;;;;;10563718;28;20645;-74
2020/12/07 19:33:18;;;;;;;18.37;10.03;;;;;;;;;;10555170;28;20191;-74
2020/12/07 19:38:20;;;;;;;19.00;10.63;;;;;;;;;;10549245;28;20246;-72
2020/12/07 19:43:25;;;;;;;19.17;10.67;;;;;;;;;;10551121;28;20557;-75
2020/12/07 19:48:27;;;;;;;20.70;11.47;;;;;;;;;;10548464;28;20215;-74
2020/12/07 19:53:29;;;;;;;20.60;11.70;;;;;;;;;;10548097;28;20476;-74
2020/12/07 19:58:31;;;;;;;22.77;12.80;;;;;;;;;;10538864;28;20563;-74
2020/12/07 20:03:32;;;;;;;19.57;11.57;;;;;;;;;;10554407;28;20255;-74
2020/12/07 20:08:34;;;;;;;21.27;11.03;;;;;;;;;;10556569;28;20709;-73
2020/12/07 20:13:36;;;;;;;19.33;10.83;;;;;;;;;;10563921;28;20208;-82
2020/12/07 20:18:39;;;;;;;17.40;10.00;;;;;;;;;;10556318;28;20683;-75
2020/12/07 20:23:41;;;;;;;17.97;10.30;;;;;;;;;;10546366;28;20210;-74
2020/12/07 20:28:43;;;;;;;18.03;10.60;;;;;;;;;;10558634;28;20215;-74
2020/12/07 20:33:45;;;;;;;17.47;10.40;;;;;;;;;;10548146;28;20227;-75
2020/12/07 20:39:03;;;;;;;24.57;16.83;;;;;;;;;;10549998;28;20233;-74
2020/12/07 20:44:05;;;;;;;17.70;10.03;;;;;;;;;;10558597;28;20213;-74
2020/12/07 20:49:07;;;;;;;25.03;15.70;;;;;;;;;;10557277;28;20315;-75
2020/12/07 20:54:09;;;;;;;19.30;11.07;;;;;;;;;;10550314;28;20219;-75
2020/12/07 20:59:11;;;;;;;20.77;11.47;;;;;;;;;;10554203;28;20226;-73
2020/12/07 21:04:13;;;;;;;37.80;20.17;;;;;;;;;;10553634;28;20195;-73
2020/12/07 21:09:15;;;;;;;26.57;13.47;;;;;;;;;;10552054;28;20226;-73
2020/12/07 21:14:16;;;;;;;18.87;11.37;;;;;;;;;;10554998;28;20204;-73
2020/12/07 21:19:18;;;;;;;20.27;11.87;;;;;;;;;;10557358;28;20610;-74
2020/12/07 21:24:20;;;;;;;20.20;11.77;;;;;;;;;;10551425;28;20195;-74
2020/12/07 21:29:22;;;;;;;18.87;11.00;;;;;;;;;;10550504;28;20215;-74
2020/12/07 21:34:23;;;;;;;18.00;10.93;;;;;;;;;;10536884;28;20196;-76
2020/12/07 21:39:26;;;;;;;19.97;11.27;;;;;;;;;;10549582;28;20321;-75
2020/12/07 21:44:27;;;;;;;19.43;11.17;;;;;;;;;;10556497;28;20199;-75
2020/12/07 21:49:29;;;;;;;20.10;11.17;;;;;;;;;;10549593;28;20212;-75
2020/12/07 21:54:31;;;;;;;19.70;11.20;;;;;;;;;;10553919;28;20211;-74
2020/12/07 21:59:36;;;;;;;17.50;9.80;;;;;;;;;;10554307;28;20235;-74
2020/12/07 22:04:42;;;;;;;22.00;12.07;;;;;;;;;;10552033;28;20579;-75
2020/12/07 22:10:18;;;;;;;22.23;11.77;;;;;;;;;;10556667;28;20332;-75
2020/12/07 22:20:55;;;;;;;17.60;9.23;;;;;;;;;;10552692;28;20667;-75
2020/12/07 22:25:58;;;;;;;23.03;11.73;;;;;;;;;;10550035;28;20199;-74
2020/12/07 22:31:03;;;;;;;24.87;13.67;;;;;;;;;;10546824;28;20229;-73
2020/12/07 22:36:05;;;;;;;22.03;12.50;;;;;;;;;;10543829;28;20650;-74
2020/12/07 22:41:07;;;;;;;24.27;13.00;;;;;;;;;;10548385;28;20222;-73
2020/12/07 22:46:11;;;;;;;19.30;10.73;;;;;;;;;;10552750;28;20202;-74
2020/12/07 22:51:13;;;;;;;24.07;14.23;;;;;;;;;;10541703;28;20230;-74
2020/12/07 22:56:15;;;;;;;24.10;14.33;;;;;;;;;;10556093;28;20614;-74
2020/12/07 23:01:17;;;;;;;23.60;12.63;;;;;;;;;;10553727;28;20226;-75
2020/12/07 23:06:18;;;;;;;22.73;12.80;;;;;;;;;;10556514;28;20208;-75
2020/12/07 23:11:21;;;;;;;20.50;11.03;;;;;;;;;;10553786;28;20593;-74
2020/12/07 23:16:22;;;;;;;21.03;11.40;;;;;;;;;;10554619;28;20200;-74
2020/12/07 23:21:25;;;;;;;21.23;11.87;;;;;;;;;;10556717;28;20826;-73
2020/12/07 23:26:34;;;;;;;19.93;8.97;;;;;;;;;;10556001;28;20200;-73
2020/12/07 23:37:15;;;;;;;21.73;10.70;;;;;;;;;;10544286;28;20207;-73
2020/12/07 23:42:43;;;;;;;22.90;12.97;;;;;;;;;;10557900;28;20271;-74
2020/12/07 23:47:50;;;;;;;21.23;10.90;;;;;;;;;;10552205;28;20196;-74
2020/12/07 23:52:53;;;;;;;20.17;12.10;;;;;;;;;;10561224;28;20702;-73
2020/12/07 23:57:56;;;;;;;21.00;12.40;;;;;;;;;;10552236;28;20559;-74
